Flight Track Log - Related Links

Times and Time Zones

All times are in EDT time to prevent confusion due to time zone crossing. See the C-GLTP flight status page for this flight to view local times or setup timezone preferences in your user account.

Time Position Orientation Groundspeed Altitude Reporting Facility
EDT Latitude Longitude Course Direction KTS MPH feet Rate Location/Type
Sun 11:07:50 AM 43.9333 -78.9333 331° Northwest 110 127 2,000  Level Toronto Center
Sun 11:08:50 AM 43.9667 -78.9833 313° West 120 138 2,600 500 Climbing Toronto Center
Sun 11:09:50 AM 44.0000 -79.0000 340° North 140 161 3,000 400 Climbing Toronto Center
Sun 11:10:50 AM 44.0333 -79.0333 324° Northwest 150 173 3,400 400 Climbing Toronto Center
Sun 11:11:00 AM 44.1330 -79.0592 331° Northwest  Level FlightAware Approximate
Sun 11:11:50 AM 44.0500 -79.0833 295° West 150 173 3,800  Level Toronto Center
Sun 11:12:00 AM 44.1696 -79.0872 331° Northwest  Level FlightAware Approximate
Sun 11:12:50 AM 44.0667 -79.1500 289° West 160 184 3,900  Level Toronto Center
Sun 11:13:00 AM 44.2062 -79.1152 331° Northwest  Level FlightAware Approximate
Sun 11:13:50 AM 44.0667 -79.2167 270° West 170 196 3,900  Level Toronto Center
Sun 11:14:50 AM 44.0833 -79.2833 289° West 170 196 3,900 100 Level Toronto Center
Sun 11:15:50 AM 44.1000 -79.3333 295° West 170 196 4,100 350 Climbing Toronto Center
Sun 11:16:50 AM 44.1167 -79.4000 289° West 170 196 4,600 500 Climbing Toronto Center
Sun 11:17:50 AM 44.1167 -79.4500 270° West 150 173 5,100 550 Climbing Toronto Center
Sun 11:18:50 AM 44.1333 -79.5167 289° West 150 173 5,700 400 Climbing Toronto Center
Sun 11:19:50 AM 44.1500 -79.5667 295° West 150 173 5,900 100 Climbing Toronto Center
Sun 11:20:50 AM 44.1667 -79.6333 289° West 160 184 5,900  Level Toronto Center
Sun 11:21:50 AM 44.1667 -79.6833 270° West 170 196 5,900  Level Toronto Center
Sun 11:22:50 AM 44.1667 -79.7500 270° West 160 184 5,900  Level Toronto Center
Sun 11:23:50 AM 44.1500 -79.8167 251° West 170 196 5,900  Level Toronto Center
Sun 11:24:50 AM 44.1500 -79.8667 270° West 160 184 5,900  Level Toronto Center
Sun 11:25:50 AM 44.1333 -79.9333 251° West 160 184 5,900  Level Toronto Center
Sun 11:26:50 AM 44.1167 -79.9833 245° Southwest 160 184 5,900  Level Toronto Center
Sun 11:27:50 AM 44.1000 -80.0500 251° West 170 196 5,900 -50 Level Toronto Center
Sun 11:28:50 AM 44.1000 -80.1167 270° West 160 184 5,800  Descending Toronto Center
Sun 11:29:50 AM 44.0833 -80.1667 245° Southwest 160 184 5,900 50 Climbing Toronto Center
Sun 11:30:50 AM 44.0667 -80.2333 251° West 170 196 5,900  Level Toronto Center
Sun 11:31:50 AM 44.0500 -80.2833 245° Southwest 160 184 5,900  Level Toronto Center
Sun 11:32:50 AM 44.0500 -80.3500 270° West 170 196 5,900  Level Toronto Center
Sun 11:33:50 AM 44.0333 -80.4167 251° West 170 196 5,900  Level Toronto Center
Sun 11:34:50 AM 44.0167 -80.4833 251° West 170 196 5,900  Level Toronto Center
Sun 11:35:50 AM 44.0000 -80.5333 245° Southwest 170 196 5,900  Level Toronto Center
Sun 11:36:50 AM 44.0000 -80.6000 270° West 170 196 5,900  Level Toronto Center
Sun 11:37:50 AM 43.9833 -80.6833 254° West 170 196 5,900  Level Toronto Center
Sun 11:38:50 AM 43.9667 -80.7167 235° Southwest 170 196 5,900 50 Level Toronto Center
Sun 11:39:50 AM 43.9500 -80.7833 251° West 170 196 6,000 -200 Climbing Toronto Center
Sun 11:40:50 AM 43.9333 -80.8667 255° West 160 184 5,500 -550 Descending Toronto Center
Sun 11:41:50 AM 43.9167 -80.9333 251° West 170 196 4,900 -550 Descending Toronto Center
Sun 11:42:50 AM 43.9000 -80.9833 245° Southwest 170 196 4,400 -550 Descending Toronto Center
Sun 11:43:50 AM 43.8667 -81.0500 235° Southwest 170 196 3,800 -550 Descending Toronto Center
Sun 11:44:50 AM 43.8500 -81.0833 235° Southwest 170 196 3,300 -550 Descending Toronto Center
Sun 11:45:50 AM 43.8333 -81.1667 255° West 170 196 2,700 -400 Descending Toronto Center
Sun 11:46:50 AM 43.8000 -81.2000 216° Southwest 170 196 2,500 -117 Descending Toronto Center
Sun 11:48:24 AM 43.7833 -81.3000 257° West 150 173 2,400 -39 Descending Toronto Center
Sun 11:49:24 AM 43.7667 -81.3333 235° Southwest 140 161 2,400  Level Toronto Center
Sun 11:50:24 AM 43.7333 -81.3833 227° Southwest 140 161 2,400  Level Toronto Center
Sun 11:51:24 AM 43.7167 -81.4333 245° Southwest 140 161 2,400  Level Toronto Center
Sun 11:52:24 AM 43.7000 -81.4500 216° Southwest 130 150 2,400  Level Toronto Center
Sun 11:53:24 AM 43.6667 -81.5000 227° Southwest 130 150 2,400 50 Level Toronto Center
Sun 11:54:24 AM 43.6667 -81.5500 270° West 130 150 2,500 100 Climbing Toronto Center

Login

Don't have an account? Register now (free) for customized features, flight alerts, and more!